Time;durP1;ratioP1;P1;durP2;ratioP2;P2;SDS_P1;SDS_P2;PMS_P1;PMS_P2;Temp;Humidity;BMP_temperature;BMP_pressure;BME280_temperature;BME280_humidity;BME280_pressure;Samples;Min_cycle;Max_cycle;Signal;HPM_P1;HPM_P2
2023/03/15 00:00:17;;;;;;;5.70;1.23;;;;;;;1.14;100.00;101061.63;5013849;28;20033;-96
2023/03/15 00:02:53;;;;;;;9.32;0.90;;;;;;;1.15;100.00;101062.44;5013739;28;20053;-96
2023/03/15 00:08:34;;;;;;;5.15;0.73;;;;;;;1.19;100.00;101053.16;5009368;28;20470;-95
2023/03/15 00:11:05;;;;;;;3.30;0.47;;;;;;;1.20;100.00;101058.34;5000312;28;20041;-96
2023/03/15 00:13:49;;;;;;;4.30;0.90;;;;;;;1.25;100.00;101057.91;5013975;28;20128;-96
2023/03/15 00:16:18;;;;;;;4.28;0.75;;;;;;;1.28;100.00;101057.59;5013967;28;20030;-96
2023/03/15 00:19:08;;;;;;;;;;;;;;;;;;;;;
2023/03/15 00:21:51;;;;;;;2.13;0.80;;;;;;;1.39;100.00;101069.94;5015076;28;20040;-96
2023/03/15 00:24:26;;;;;;;6.05;0.85;;;;;;;1.36;100.00;101055.03;5013266;28;20272;-96
2023/03/15 00:27:21;;;;;;;2.58;0.90;;;;;;;1.46;100.00;101071.03;5013847;28;20026;-96
2023/03/15 00:29:58;;;;;;;3.83;0.80;;;;;;;1.38;100.00;101069.06;4999795;28;20573;-96
2023/03/15 00:32:30;;;;;;;5.03;1.60;;;;;;;1.38;100.00;101077.09;5013240;28;20033;-96
2023/03/15 00:34:56;;;;;;;3.35;0.80;;;;;;;1.34;100.00;101069.53;4998353;28;20052;-96
2023/03/15 00:40:21;;;;;;;7.28;1.08;;;;;;;1.37;100.00;101074.56;5002314;28;20049;-96
2023/03/15 00:43:02;;;;;;;3.00;0.80;;;;;;;1.39;100.00;101078.78;4984133;28;20050;-96
2023/03/15 00:46:21;;;;;;;8.05;1.13;;;;;;;1.31;100.00;101065.31;5014066;28;20065;-96
2023/03/15 00:48:52;;;;;;;3.63;0.95;;;;;;;1.32;100.00;101067.00;4992179;28;20370;-96
2023/03/15 00:54:30;;;;;;;5.97;0.95;;;;;;;1.36;100.00;101070.22;5009423;28;20038;-96
2023/03/15 00:57:22;;;;;;;5.75;1.20;;;;;;;1.33;100.00;101065.16;5001528;28;20029;-96
2023/03/15 01:00:07;;;;;;;3.47;0.80;;;;;;;1.34;100.00;101066.84;4999187;28;20030;-96
2023/03/15 01:02:39;;;;;;;3.17;1.00;;;;;;;1.36;100.00;101070.22;4999072;28;20037;-96
2023/03/15 01:05:21;;;;;;;;;;;;;;;;;;;;;
2023/03/15 01:07:48;;;;;;;6.38;1.40;;;;;;;1.36;100.00;101070.22;5017251;28;20040;-96
2023/03/15 01:10:32;;;;;;;3.33;1.00;;;;;;;1.35;100.00;101073.88;5015633;28;20532;-96
2023/03/15 01:13:06;;;;;;;5.60;1.57;;;;;;;1.39;100.00;101078.78;5017845;28;20068;-96
2023/03/15 01:15:38;;;;;;;8.27;2.20;;;;;;;1.35;100.00;101072.03;5018304;28;20341;-96
2023/03/15 01:18:22;;;;;;;9.57;3.30;;;;;;;1.36;100.00;101078.25;5017424;28;20038;-96
2023/03/15 01:21:00;;;;;;;13.00;4.53;;;;;;;1.46;100.00;101097.75;5004104;28;20033;-96
2023/03/15 01:23:54;;;;;;;;;;;;;;;;;;;;;
2023/03/15 01:26:40;;;;;;;14.45;4.85;;;;;;;1.43;100.00;101082.00;5019897;28;20038;-96
2023/03/15 01:29:24;;;;;;;;;;;;;;;;;;;;;
2023/03/15 01:32:00;;;;;;;10.25;6.38;;;;;;;1.42;100.00;101095.50;5002904;28;20077;-96
2023/03/15 01:43:47;;;;;;;13.90;8.25;;;;;;;1.39;100.00;101115.38;5011373;23;20409;-96
2023/03/15 01:46:22;;;;;;;10.27;5.82;;;;;;;1.38;100.00;101111.03;4979062;28;20513;-81
2023/03/15 01:49:06;;;;;;;12.35;7.28;;;;;;;1.33;100.00;101108.78;4996980;28;20030;-81
2023/03/15 01:51:51;;;;;;;13.10;8.75;;;;;;;1.35;100.00;101111.31;4979733;28;20492;-81
2023/03/15 01:54:52;;;;;;;15.00;9.87;;;;;;;1.30;100.00;101105.56;4997435;28;20065;-81
2023/03/15 01:57:24;;;;;;;14.43;9.35;;;;;;;1.31;100.00;101126.78;4975941;28;20292;-81
2023/03/15 01:59:54;;;;;;;18.52;10.38;;;;;;;1.32;100.00;101125.81;4979183;28;20034;-81
2023/03/15 02:02:22;;;;;;;21.90;11.75;;;;;;;1.31;100.00;101126.78;4997176;28;20034;-81
2023/03/15 02:04:56;;;;;;;18.42;12.30;;;;;;;1.33;100.00;101135.53;4963462;28;20105;-81
2023/03/15 02:07:24;;;;;;;22.80;12.80;;;;;;;1.28;100.00;101135.13;4996547;28;20041;-81
2023/03/15 02:09:58;;;;;;;20.25;12.02;;;;;;;1.27;100.00;101148.63;4996088;28;20470;-80
2023/03/15 02:12:25;;;;;;;22.98;12.60;;;;;;;1.25;100.00;101153.28;4996025;28;20462;-81
2023/03/15 02:14:52;;;;;;;22.88;12.70;;;;;;;1.26;100.00;101149.66;4977926;28;20045;-81
2023/03/15 02:17:22;;;;;;;23.27;13.63;;;;;;;1.27;100.00;101153.97;4979135;28;20036;-80
2023/03/15 02:20:04;;;;;;;24.92;14.32;;;;;;;1.26;100.00;101160.34;4995930;28;20034;-80
2023/03/15 02:22:43;;;;;;;26.90;14.25;;;;;;;1.25;100.00;101158.63;4995874;28;20038;-81
2023/03/15 02:25:26;;;;;;;25.40;14.75;;;;;;;1.23;100.00;101162.28;4978717;28;20026;-81
2023/03/15 02:27:52;;;;;;;29.20;14.93;;;;;;;1.25;100.00;101155.97;4995838;28;20510;-81
2023/03/15 02:30:18;;;;;;;28.58;14.38;;;;;;;1.25;100.00;101154.13;4947376;28;20057;-81
2023/03/15 02:32:43;;;;;;;25.58;14.18;;;;;;;1.27;100.00;101156.66;4946448;28;20386;-81
2023/03/15 02:35:09;;;;;;;25.02;12.77;;;;;;;1.29;100.00;101160.88;4978382;28;20116;-82
2023/03/15 02:37:35;;;;;;;22.83;12.90;;;;;;;1.28;100.00;101159.19;4995866;28;20469;-81
2023/03/15 02:40:00;;;;;;;20.40;11.52;;;;;;;1.29;100.00;101163.53;4962298;28;20030;-81
2023/03/15 02:42:26;;;;;;;20.05;10.55;;;;;;;1.28;100.00;101163.69;4961891;28;20093;-81
2023/03/15 02:44:53;;;;;;;17.07;10.03;;;;;;;1.27;100.00;101164.66;4962251;28;20049;-81
2023/03/15 02:47:23;;;;;;;21.67;11.77;;;;;;;1.21;100.00;101166.97;4978182;28;20037;-81
2023/03/15 02:49:51;;;;;;;21.35;10.93;;;;;;;1.19;100.00;101178.78;4996171;28;20035;-81
2023/03/15 02:52:17;;;;;;;23.33;10.73;;;;;;;1.13;100.00;101176.69;4978022;28;20033;-81
2023/03/15 02:54:42;;;;;;;16.65;9.27;;;;;;;1.07;100.00;101180.78;4961955;28;20047;-82
2023/03/15 02:57:12;;;;;;;19.20;11.00;;;;;;;1.01;100.00;101181.38;4945924;28;20030;-81
2023/03/15 02:59:38;;;;;;;22.17;10.05;;;;;;;0.97;100.00;101172.78;4995154;28;20037;-81
2023/03/15 03:02:04;;;;;;;20.83;10.52;;;;;;;0.92;100.00;101182.25;4977897;28;20027;-81
2023/03/15 03:04:30;;;;;;;18.07;10.67;;;;;;;0.88;100.00;101189.69;4961685;28;20054;-81
2023/03/15 03:06:56;;;;;;;17.10;10.20;;;;;;;0.86;100.00;101199.69;4978720;28;20317;-81
2023/03/15 03:09:22;;;;;;;19.60;10.63;;;;;;;0.82;100.00;101203.63;4977863;28;20466;-81
2023/03/15 03:11:48;;;;;;;20.20;10.68;;;;;;;0.80;100.00;101203.75;4978447;28;20034;-81
2023/03/15 03:14:13;;;;;;;19.30;11.00;;;;;;;0.76;100.00;101213.03;4961422;28;20113;-81
2023/03/15 03:16:41;;;;;;;20.63;10.47;;;;;;;0.78;100.00;101218.25;4978206;28;20030;-81
2023/03/15 03:19:06;;;;;;;20.05;11.02;;;;;;;0.77;100.00;101221.88;4995316;28;20135;-81
2023/03/15 03:21:32;;;;;;;20.80;10.73;;;;;;;0.75;100.00;101224.69;4945577;28;20054;-81
2023/03/15 03:23:57;;;;;;;18.55;10.75;;;;;;;0.72;100.00;101216.97;4977593;28;20026;-81
2023/03/15 03:26:26;;;;;;;17.93;9.33;;;;;;;0.71;100.00;101239.34;4945166;28;20038;-81
2023/03/15 03:28:53;;;;;;;19.77;10.43;;;;;;;0.65;100.00;101231.88;4994917;28;20097;-81
2023/03/15 03:31:24;;;;;;;20.33;10.20;;;;;;;0.58;100.00;101233.44;4994583;28;20038;-81
2023/03/15 03:33:50;;;;;;;21.20;10.13;;;;;;;0.49;100.00;101230.63;4995342;28;20034;-81
2023/03/15 03:36:16;;;;;;;18.85;9.35;;;;;;;0.44;100.00;101234.69;4995029;28;20054;-81
2023/03/15 03:38:43;;;;;;;20.00;10.13;;;;;;;0.36;100.00;101232.72;4961113;28;20114;-81
2023/03/15 03:41:09;;;;;;;18.40;9.65;;;;;;;0.31;100.00;101240.28;4977316;28;20034;-81
2023/03/15 03:43:35;;;;;;;18.77;9.90;;;;;;;0.30;100.00;101251.97;4961015;28;20478;-81
2023/03/15 03:46:01;;;;;;;17.25;9.23;;;;;;;0.24;100.00;101255.19;4977307;28;20049;-81
2023/03/15 03:48:29;;;;;;;20.77;9.98;;;;;;;0.17;100.00;101250.38;4961109;28;20500;-82
2023/03/15 03:50:56;;;;;;;18.98;9.55;;;;;;;0.13;100.00;101257.00;4977062;28;20039;-81
2023/03/15 03:53:21;;;;;;;22.75;10.15;;;;;;;0.08;100.00;101263.72;4977551;28;20605;-81
2023/03/15 03:55:46;;;;;;;18.50;8.98;;;;;;;0.04;100.00;101264.97;4976798;28;20121;-81
2023/03/15 03:58:12;;;;;;;19.40;10.10;;;;;;;-0.03;100.00;101260.19;4994469;28;20049;-81
2023/03/15 04:00:38;;;;;;;19.63;9.57;;;;;;;-0.07;100.00;101271.28;4961353;28;20026;-82
2023/03/15 04:03:03;;;;;;;16.15;8.52;;;;;;;-0.11;100.00;101267.19;4976974;28;20049;-81
2023/03/15 04:05:29;;;;;;;18.90;9.33;;;;;;;-0.13;100.00;101279.78;4976916;28;20098;-81
2023/03/15 04:07:54;;;;;;;17.20;8.88;;;;;;;-0.18;100.00;101282.88;4994458;28;20533;-81
2023/03/15 04:10:25;;;;;;;17.73;8.20;;;;;;;-0.20;100.00;101290.16;4960675;28;20034;-81
2023/03/15 04:12:56;;;;;;;21.88;9.43;;;;;;;-0.24;100.00;101288.72;4977693;28;20026;-81
2023/03/15 04:15:23;;;;;;;16.93;8.90;;;;;;;-0.26;100.00;101294.22;4976540;28;20038;-82
2023/03/15 04:17:54;;;;;;;17.27;9.32;;;;;;;-0.27;100.00;101299.69;4994309;28;20093;-82
2023/03/15 04:20:33;;;;;;;18.42;9.50;;;;;;;-0.29;100.00;101307.81;4977891;28;20033;-81
2023/03/15 04:22:59;;;;;;;20.42;9.38;;;;;;;-0.33;100.00;101308.22;4994347;28;20113;-81
2023/03/15 04:25:25;;;;;;;17.88;8.93;;;;;;;-0.36;100.00;101315.47;4976923;28;20118;-81
2023/03/15 04:27:58;;;;;;;20.17;10.07;;;;;;;-0.40;100.00;101314.09;4994194;28;20045;-81
2023/03/15 04:30:27;;;;;;;21.88;9.40;;;;;;;-0.41;100.00;101316.88;4977042;28;20061;-81
2023/03/15 04:33:02;;;;;;;16.85;8.30;;;;;;;-0.42;100.00;101320.50;4976945;28;20069;-81
2023/03/15 04:35:36;;;;;;;18.17;9.05;;;;;;;-0.44;100.00;101325.97;4963700;28;20030;-81
2023/03/15 04:38:02;;;;;;;19.42;8.57;;;;;;;-0.46;100.00;101327.91;4979569;28;20034;-81
2023/03/15 04:40:29;;;;;;;18.30;8.97;;;;;;;-0.52;100.00;101330.28;4980495;28;20105;-81
2023/03/15 04:42:55;;;;;;;23.00;9.13;;;;;;;-0.54;100.00;101335.75;4997556;28;20101;-82
2023/03/15 04:45:22;;;;;;;21.15;9.68;;;;;;;-0.55;100.00;101340.25;4998060;28;20474;-81
2023/03/15 04:47:49;;;;;;;19.98;9.32;;;;;;;-0.55;100.00;101339.38;4964396;28;20041;-81
2023/03/15 04:50:15;;;;;;;23.30;9.17;;;;;;;-0.60;100.00;101344.25;4980250;28;20034;-81
2023/03/15 04:52:40;;;;;;;20.40;8.48;;;;;;;-0.61;100.00;101343.41;4964199;28;20327;-81
2023/03/15 04:55:06;;;;;;;25.23;10.73;;;;;;;-0.62;100.00;101347.06;4964206;28;20063;-81
2023/03/15 04:57:31;;;;;;;21.30;9.52;;;;;;;-0.65;100.00;101347.31;4964584;28;20037;-81
2023/03/15 04:59:57;;;;;;;19.17;8.30;;;;;;;-0.68;100.00;101352.06;4980126;28;20091;-81
2023/03/15 05:02:22;;;;;;;18.40;9.13;;;;;;;-0.68;100.00;101344.88;4997844;28;20026;-81
2023/03/15 05:04:48;;;;;;;24.53;9.03;;;;;;;-0.72;100.00;101352.31;4980136;28;20479;-81
2023/03/15 05:07:13;;;;;;;21.33;9.40;;;;;;;-0.75;100.00;101355.25;4947908;28;20037;-81
2023/03/15 05:09:38;;;;;;;22.58;9.40;;;;;;;-0.75;100.00;101355.25;4997665;28;20037;-81
2023/03/15 05:12:04;;;;;;;24.87;9.33;;;;;;;-0.78;100.00;101358.16;4964466;28;20093;-81
2023/03/15 05:14:31;;;;;;;20.05;8.50;;;;;;;-0.77;100.00;101359.88;4964222;28;20463;-81
2023/03/15 05:16:58;;;;;;;19.47;8.83;;;;;;;-0.81;100.00;101369.09;4964004;28;20034;-81
2023/03/15 05:19:27;;;;;;;16.75;8.32;;;;;;;-0.81;100.00;101363.75;4979864;28;20484;-81
2023/03/15 05:21:53;;;;;;;19.40;8.30;;;;;;;-0.82;100.00;101374.53;4979770;28;20042;-81
2023/03/15 05:24:19;;;;;;;21.27;8.90;;;;;;;-0.84;100.00;101379.13;4980427;28;20136;-81
2023/03/15 05:26:45;;;;;;;18.02;8.25;;;;;;;-0.86;100.00;101376.59;4963554;28;20129;-81
2023/03/15 05:29:13;;;;;;;18.90;8.57;;;;;;;-0.84;100.00;101379.13;4979571;28;20035;-81
2023/03/15 05:31:39;;;;;;;19.65;8.65;;;;;;;-0.87;100.00;101382.91;4997072;28;20598;-81
2023/03/15 05:34:06;;;;;;;23.63;8.70;;;;;;;-0.89;100.00;101388.38;4980264;28;20066;-82
2023/03/15 05:36:32;;;;;;;18.15;8.55;;;;;;;-0.92;100.00;101387.78;4979372;28;20038;-82
2023/03/15 05:38:57;;;;;;;20.02;9.05;;;;;;;-0.92;100.00;101391.28;4979664;28;20034;-82
2023/03/15 05:41:23;;;;;;;19.98;9.00;;;;;;;-0.92;100.00;101396.59;4980082;28;20046;-85
2023/03/15 05:43:49;;;;;;;19.73;8.48;;;;;;;-0.92;100.00;101398.44;4979163;28;20105;-81
2023/03/15 05:46:15;;;;;;;19.47;9.17;;;;;;;-0.92;100.00;101401.09;4996236;28;20104;-81
2023/03/15 05:48:41;;;;;;;18.15;8.10;;;;;;;-0.94;100.00;101395.06;4995024;28;20709;-81
2023/03/15 05:51:07;;;;;;;20.05;8.80;;;;;;;-0.96;100.00;101405.84;4963761;28;20466;-81
2023/03/15 05:53:32;;;;;;;21.60;8.67;;;;;;;-1.01;100.00;101402.69;4946709;28;20030;-81
2023/03/15 05:55:58;;;;;;;24.17;8.93;;;;;;;-1.02;100.00;101414.31;4979511;28;20061;-81
2023/03/15 05:58:23;;;;;;;20.00;8.88;;;;;;;-1.06;100.00;101418.22;4979320;28;20281;-81
2023/03/15 06:00:49;;;;;;;21.20;9.47;;;;;;;-1.07;100.00;101414.69;4962944;28;20042;-81
2023/03/15 06:03:15;;;;;;;22.37;9.50;;;;;;;-1.05;100.00;101419.88;4947032;28;20034;-81
2023/03/15 06:05:41;;;;;;;19.95;8.88;;;;;;;-1.06;100.00;101426.22;4978920;28;20497;-81
2023/03/15 06:08:06;;;;;;;20.63;8.57;;;;;;;-1.06;100.00;101434.19;4962768;28;20034;-81
2023/03/15 06:10:32;;;;;;;17.80;8.63;;;;;;;-1.04;100.00;101442.06;4963147;28;20180;-81
2023/03/15 06:12:58;;;;;;;18.93;8.80;;;;;;;-1.02;100.00;101434.78;4962708;28;20038;-81
2023/03/15 06:15:23;;;;;;;23.45;8.63;;;;;;;-0.98;100.00;101439.72;4978925;28;20039;-81
2023/03/15 06:17:49;;;;;;;22.87;9.43;;;;;;;-0.93;100.00;101437.56;4978701;28;20108;-81
2023/03/15 06:20:15;;;;;;;25.90;9.50;;;;;;;-0.92;100.00;101441.06;4962184;28;20030;-81
2023/03/15 06:22:40;;;;;;;21.50;8.37;;;;;;;-0.86;100.00;101451.19;4996269;28;20033;-81
2023/03/15 06:25:06;;;;;;;25.17;9.57;;;;;;;-0.77;100.00;101462.91;4962338;28;20037;-81
2023/03/15 06:27:32;;;;;;;24.25;9.95;;;;;;;-0.64;100.00;101462.75;4978299;28;20031;-81
2023/03/15 06:29:58;;;;;;;33.33;10.27;;;;;;;-0.51;100.00;101466.09;4946351;28;20144;-81
2023/03/15 06:32:24;;;;;;;25.27;10.57;;;;;;;-0.39;100.00;101469.56;4963372;28;20038;-81
2023/03/15 06:34:49;;;;;;;26.05;10.07;;;;;;;-0.28;100.00;101484.66;4978572;28;20038;-81
2023/03/15 06:37:15;;;;;;;25.73;10.40;;;;;;;-0.15;100.00;101487.97;4978205;28;20038;-81
2023/03/15 06:39:41;;;;;;;31.83;11.27;;;;;;;-0.06;100.00;101487.22;4962150;28;20034;-81
2023/03/15 06:42:07;;;;;;;26.87;11.10;;;;;;;0.07;100.00;101487.00;4978041;28;20356;-81
2023/03/15 06:44:33;;;;;;;34.55;12.07;;;;;;;0.17;100.00;101495.06;4945387;28;20066;-81
2023/03/15 06:46:59;;;;;;;30.15;10.77;;;;;;;0.24;100.00;101495.41;4962020;28;20496;-81
2023/03/15 06:49:24;;;;;;;29.47;11.57;;;;;;;0.33;100.00;101499.94;4978225;28;20042;-81
2023/03/15 06:51:50;;;;;;;30.23;11.80;;;;;;;0.42;100.00;101509.00;4946022;28;20058;-81
2023/03/15 06:54:16;;;;;;;27.15;10.52;;;;;;;0.41;100.00;101505.44;4995297;28;20062;-81
2023/03/15 06:56:41;;;;;;;26.07;11.50;;;;;;;0.42;100.00;101509.00;4961715;28;20429;-81
2023/03/15 06:59:07;;;;;;;32.97;11.63;;;;;;;0.48;100.00;101516.47;4977398;28;20057;-81
2023/03/15 07:01:33;;;;;;;29.20;11.03;;;;;;;0.51;100.00;101517.03;4995282;28;20171;-81
2023/03/15 07:03:58;;;;;;;28.73;11.40;;;;;;;0.58;100.00;101516.53;4995191;28;20031;-81
2023/03/15 07:06:23;;;;;;;29.58;12.00;;;;;;;0.59;100.00;101534.22;4961626;28;20062;-81
2023/03/15 07:08:49;;;;;;;28.02;10.93;;;;;;;0.58;100.00;101529.88;4961308;28;20043;-81
2023/03/15 07:11:14;;;;;;;30.40;11.30;;;;;;;0.58;100.00;101530.72;4977075;28;20080;-81
2023/03/15 07:13:40;;;;;;;30.77;12.30;;;;;;;0.55;100.00;101532.78;4978033;28;20034;-81
2023/03/15 07:16:05;;;;;;;32.78;12.13;;;;;;;0.57;100.00;101539.69;4977457;28;20030;-81
2023/03/15 07:18:33;;;;;;;29.77;11.80;;;;;;;0.58;100.00;101544.06;4977204;28;20491;-81
2023/03/15 07:20:59;;;;;;;33.08;12.00;;;;;;;0.61;100.00;101550.97;4977335;28;20026;-82
2023/03/15 07:23:25;;;;;;;31.02;11.85;;;;;;;0.62;100.00;101548.16;4977266;28;20080;-81
2023/03/15 07:25:53;;;;;;;30.00;12.38;;;;;;;0.65;100.00;101560.38;4994358;28;20027;-81
2023/03/15 07:28:19;;;;;;;32.78;12.32;;;;;;;0.72;100.00;101568.72;4961233;28;20034;-81
2023/03/15 07:31:02;;;;;;;29.20;13.37;;;;;;;0.75;100.00;101563.13;4976958;28;20022;-81
2023/03/15 07:33:30;;;;;;;28.92;12.32;;;;;;;0.81;100.00;101566.13;4994492;28;20288;-82
2023/03/15 07:35:56;;;;;;;29.77;11.75;;;;;;;0.88;100.00;101567.25;4977548;28;20031;-81
2023/03/15 07:38:23;;;;;;;31.23;12.02;;;;;;;0.92;100.00;101575.00;4976649;28;20030;-81
2023/03/15 07:40:49;;;;;;;31.60;12.05;;;;;;;0.93;100.00;101571.34;4994380;28;20144;-81
2023/03/15 07:43:14;;;;;;;30.40;11.95;;;;;;;0.93;100.00;101576.69;4960675;28;20521;-81
2023/03/15 07:45:41;;;;;;;30.60;12.13;;;;;;;0.99;100.00;101581.50;4977054;28;20050;-81
2023/03/15 07:48:10;;;;;;;28.42;11.35;;;;;;;1.03;100.00;101589.13;4994411;28;20022;-81
2023/03/15 07:50:36;;;;;;;31.42;11.77;;;;;;;1.10;100.00;101591.25;4976785;28;20481;-81
2023/03/15 07:53:05;;;;;;;30.60;11.48;;;;;;;1.16;100.00;101599.56;4994011;28;20038;-80
2023/03/15 07:55:32;;;;;;;27.75;11.70;;;;;;;1.21;100.00;101609.84;4977498;28;20033;-81
2023/03/15 07:57:57;;;;;;;29.10;11.32;;;;;;;1.23;100.00;101606.06;4976855;28;20088;-81
2023/03/15 08:00:23;;;;;;;28.53;11.07;;;;;;;1.26;100.00;101612.16;4961107;28;20038;-82
2023/03/15 08:02:49;;;;;;;34.67;10.93;;;;;;;1.28;100.00;101618.19;4977205;28;20034;-82
2023/03/15 08:05:17;;;;;;;28.53;10.07;;;;;;;1.31;100.00;101617.91;4976660;28;20041;-81
2023/03/15 08:07:43;;;;;;;24.35;9.00;;;;;;;1.32;100.00;101628.47;4945498;28;20073;-81
2023/03/15 08:10:09;;;;;;;23.58;9.05;;;;;;;1.33;100.00;101630.16;4960702;28;20108;-81
2023/03/15 08:12:34;;;;;;;22.50;9.20;;;;;;;1.31;100.00;101636.63;4959888;28;20034;-81
2023/03/15 08:15:00;;;;;;;21.43;8.63;;;;;;;1.30;100.00;101642.94;4976774;28;20572;-81
2023/03/15 08:17:25;;;;;;;22.23;9.18;;;;;;;1.35;100.00;101646.91;4960662;28;20386;-81
2023/03/15 08:19:51;;;;;;;19.07;7.30;;;;;;;1.37;100.00;101644.97;4944282;28;20034;-81
2023/03/15 08:22:16;;;;;;;18.50;7.20;;;;;;;1.38;100.00;101640.47;4976453;28;20454;-81
2023/03/15 08:24:42;;;;;;;23.47;7.80;;;;;;;1.42;100.00;101643.69;4976699;28;20066;-81
2023/03/15 08:27:07;;;;;;;15.95;8.23;;;;;;;1.46;100.00;101653.16;4976667;28;20034;-81
2023/03/15 08:29:33;;;;;;;15.70;7.35;;;;;;;1.50;100.00;101657.25;4945157;28;20085;-81
2023/03/15 08:31:58;;;;;;;15.73;7.50;;;;;;;1.54;100.00;101662.19;4976970;28;20039;-81
2023/03/15 08:34:24;;;;;;;18.13;7.60;;;;;;;1.60;100.00;101663.47;4961039;28;20462;-81
2023/03/15 08:36:50;;;;;;;20.42;7.72;;;;;;;1.70;100.00;101658.16;4993737;28;20066;-82
2023/03/15 08:39:15;;;;;;;20.07;8.07;;;;;;;1.79;100.00;101669.84;4976477;28;20069;-82
2023/03/15 08:41:42;;;;;;;22.85;8.00;;;;;;;1.83;100.00;101669.44;4976265;28;20784;-84
2023/03/15 08:44:08;;;;;;;16.30;7.10;;;;;;;1.84;100.00;101676.47;4960342;28;20046;-83
2023/03/15 08:46:33;;;;;;;14.57;6.70;;;;;;;1.87;100.00;101680.72;4993776;28;20046;-83
2023/03/15 08:48:59;;;;;;;15.20;7.03;;;;;;;1.91;100.00;101682.97;4944209;28;20038;-82
2023/03/15 08:51:25;;;;;;;11.77;6.50;;;;;;;1.97;100.00;101681.56;4975986;28;20030;-83
2023/03/15 08:53:51;;;;;;;14.10;6.85;;;;;;;2.07;100.00;101686.97;4993721;28;20042;-83
2023/03/15 08:56:17;;;;;;;16.63;6.70;;;;;;;2.15;100.00;101684.41;4961062;28;20351;-83
2023/03/15 08:58:43;;;;;;;9.50;5.33;;;;;;;2.20;100.00;101679.50;4960463;28;20039;-83
2023/03/15 09:01:12;;;;;;;16.90;6.13;;;;;;;2.24;100.00;101690.75;4993515;28;20105;-83
2023/03/15 09:03:37;;;;;;;11.65;5.25;;;;;;;2.34;100.00;101694.28;4976179;28;20277;-83
2023/03/15 09:06:03;;;;;;;10.40;5.57;;;;;;;2.41;100.00;101683.88;4993766;28;20030;-83
2023/03/15 09:08:28;;;;;;;13.37;5.93;;;;;;;2.51;100.00;101690.06;4960223;28;20451;-83
2023/03/15 09:10:57;;;;;;;12.90;5.40;;;;;;;2.60;100.00;101697.25;4960325;28;20035;-83
2023/03/15 09:13:24;;;;;;;12.00;5.40;;;;;;;2.64;100.00;101695.13;4960002;28;20081;-83
2023/03/15 09:15:51;;;;;;;9.73;4.75;;;;;;;2.64;100.00;101692.44;4976200;28;20075;-83
2023/03/15 09:18:17;;;;;;;14.23;4.72;;;;;;;2.67;100.00;101702.88;4976057;28;20026;-83
2023/03/15 09:20:42;;;;;;;11.83;4.07;;;;;;;2.74;100.00;101695.97;4944108;28;20108;-83
2023/03/15 09:23:07;;;;;;;12.45;3.70;;;;;;;2.81;100.00;101686.34;4994651;28;20030;-83
2023/03/15 09:25:35;;;;;;;15.43;3.60;;;;;;;2.97;100.00;101696.50;4963765;28;20034;-83
2023/03/15 09:28:01;;;;;;;10.07;3.50;;;;;;;3.17;100.00;101691.06;4947865;28;20045;-83
2023/03/15 09:30:27;;;;;;;9.97;3.40;;;;;;;3.34;100.00;101693.00;4979497;28;20038;-83
2023/03/15 09:32:53;;;;;;;13.25;3.58;;;;;;;3.48;100.00;101696.19;4963720;28;20129;-82
2023/03/15 09:35:19;;;;;;;10.03;2.97;;;;;;;3.45;100.00;101697.31;4979646;28;20450;-84
2023/03/15 09:37:45;;;;;;;6.57;2.33;;;;;;;3.41;100.00;101698.63;4979464;28;20057;-83
2023/03/15 09:40:33;;;;;;;7.88;2.28;;;;;;;3.48;100.00;101691.69;4979305;28;20037;-82
2023/03/15 09:43:07;;;;;;;12.73;2.53;;;;;;;3.57;100.00;101686.41;4979225;28;20037;-82
2023/03/15 09:45:58;;;;;;;8.15;2.45;;;;;;;3.74;100.00;101699.03;4979038;28;20046;-82
2023/03/15 09:48:32;;;;;;;6.78;2.80;;;;;;;3.82;100.00;101695.59;4979510;28;20097;-82
2023/03/15 09:51:16;;;;;;;11.73;2.70;;;;;;;3.93;100.00;101697.25;4979162;28;20041;-82
2023/03/15 09:54:08;;;;;;;9.13;3.00;;;;;;;4.13;100.00;101700.63;4979134;28;20030;-82
2023/03/15 09:57:01;;;;;;;18.77;2.13;;;;;;;3.93;100.00;101702.59;4979332;28;20069;-82
2023/03/15 09:59:45;;;;;;;6.68;1.77;;;;;;;3.78;100.00;101705.78;4979257;28;20432;-82
2023/03/15 10:02:26;;;;;;;7.75;1.40;;;;;;;4.01;100.00;101708.06;4979447;28;20027;-82
2023/03/15 10:05:03;;;;;;;11.57;1.45;;;;;;;3.92;100.00;101707.13;4996305;28;20037;-82
2023/03/15 10:07:28;;;;;;;12.10;1.35;;;;;;;3.84;100.00;101699.81;4978757;28;20038;-82
2023/03/15 10:09:57;;;;;;;11.63;1.60;;;;;;;4.04;100.00;101700.56;4947420;28;20026;-82
2023/03/15 10:12:41;;;;;;;10.32;1.27;;;;;;;4.48;100.00;101693.56;4995883;28;20437;-82
2023/03/15 10:15:49;;;;;;;5.18;1.30;;;;;;;4.83;100.00;101706.13;4979983;28;20061;-82
2023/03/15 10:18:26;;;;;;;6.35;1.13;;;;;;;4.73;100.00;101700.84;4951443;28;20030;-82
2023/03/15 10:21:10;;;;;;;5.87;1.63;;;;;;;4.63;100.00;101700.06;4978421;28;20030;-82
2023/03/15 10:23:52;;;;;;;11.05;1.13;;;;;;;4.70;100.00;101698.47;4978807;28;20022;-82
2023/03/15 10:26:24;;;;;;;6.57;1.05;;;;;;;4.94;100.00;101696.94;4978454;28;20110;-82
2023/03/15 10:28:50;;;;;;;4.57;1.00;;;;;;;5.19;95.97;101707.88;4979580;28;20031;-82
2023/03/15 10:31:22;;;;;;;4.53;0.60;;;;;;;5.04;89.89;101704.94;4996183;28;20030;-82
2023/03/15 10:33:49;;;;;;;6.43;0.80;;;;;;;5.04;90.46;101699.56;4978351;28;20052;-82
2023/03/15 10:36:17;;;;;;;7.15;0.82;;;;;;;5.33;90.66;101706.44;4977559;28;20126;-82
2023/03/15 10:38:43;;;;;;;5.65;1.00;;;;;;;5.45;86.95;101707.88;4978248;28;20061;-82
2023/03/15 10:41:12;;;;;;;5.00;1.02;;;;;;;5.69;87.26;101708.97;4977971;28;20030;-83
2023/03/15 10:43:40;;;;;;;8.57;1.27;;;;;;;5.97;86.12;101706.91;4977986;28;20121;-82
2023/03/15 10:46:09;;;;;;;5.57;1.20;;;;;;;6.36;87.87;101702.78;4978037;28;20662;-82
2023/03/15 10:48:51;;;;;;;5.85;1.45;;;;;;;6.81;80.46;101714.94;4978036;28;20026;-82
2023/03/15 10:51:47;;;;;;;6.40;1.15;;;;;;;7.14;85.30;101712.19;4995123;28;20035;-82
2023/03/15 10:54:22;;;;;;;4.32;0.90;;;;;;;7.30;77.16;101716.72;4977131;28;20053;-82
2023/03/15 10:57:05;;;;;;;4.50;1.13;;;;;;;7.73;78.16;101719.97;4977818;28;20037;-82
2023/03/15 10:59:35;;;;;;;6.73;0.90;;;;;;;8.17;79.27;101716.69;4978212;28;20030;-82
2023/03/15 11:02:15;;;;;;;5.70;0.90;;;;;;;8.66;76.54;101726.34;4995382;28;20065;-83
2023/03/15 11:04:42;;;;;;;5.03;1.27;;;;;;;9.13;68.22;101730.69;4977544;28;20129;-82
2023/03/15 11:07:09;;;;;;;4.32;0.70;;;;;;;9.63;70.49;101727.47;4977816;28;20045;-83
2023/03/15 11:09:58;;;;;;;3.55;0.60;;;;;;;10.08;72.46;101711.13;4978162;28;20097;-83
2023/03/15 11:12:26;;;;;;;4.30;0.80;;;;;;;10.45;63.60;101737.22;4995277;28;20037;-83
2023/03/15 11:15:09;;;;;;;2.92;0.68;;;;;;;10.63;60.36;101738.63;4977398;28;20031;-83
2023/03/15 11:17:41;;;;;;;4.35;0.68;;;;;;;10.66;59.04;101741.81;4977765;28;20045;-83
2023/03/15 11:20:34;;;;;;;4.53;1.00;;;;;;;11.04;64.13;101735.25;4977546;28;20064;-83
2023/03/15 11:23:19;;;;;;;3.20;0.90;;;;;;;13.55;57.41;101741.03;4977066;28;20057;-83
2023/03/15 11:25:45;;;;;;;3.20;0.50;;;;;;;17.57;46.91;101733.00;4977180;28;20027;-83
2023/03/15 11:28:16;;;;;;;2.58;0.50;;;;;;;19.31;40.00;101741.97;4976900;28;20169;-83
2023/03/15 11:30:46;;;;;;;2.65;0.50;;;;;;;18.05;37.54;101745.56;4995211;28;20105;-83
2023/03/15 11:33:43;;;;;;;3.07;0.97;;;;;;;17.43;43.89;101746.13;4994450;28;20101;-83
2023/03/15 11:36:17;;;;;;;5.50;1.13;;;;;;;17.66;42.62;101738.94;4969072;28;20044;-83
2023/03/15 11:38:44;;;;;;;2.83;0.88;;;;;;;20.45;37.98;101726.63;4994863;28;20077;-83
2023/03/15 11:41:21;;;;;;;2.72;0.80;;;;;;;22.57;35.67;101734.19;4977396;28;20045;-84
2023/03/15 11:44:09;;;;;;;4.22;1.10;;;;;;;24.43;30.81;101724.25;4994204;28;20500;-83
2023/03/15 11:47:01;;;;;;;3.57;0.83;;;;;;;27.45;35.07;101723.44;4975665;28;20050;-84
2023/03/15 11:49:39;;;;;;;5.25;1.00;;;;;;;28.92;23.88;101717.91;4976453;28;20109;-84
2023/03/15 11:52:05;;;;;;;5.57;1.60;;;;;;;28.74;19.87;101708.63;4976508;28;20030;-84
2023/03/15 11:54:31;;;;;;;3.50;0.80;;;;;;;28.07;21.05;101710.19;4945172;28;20157;-84